Time;durP1;ratioP1;P1;durP2;ratioP2;P2;SDS_P1;SDS_P2;PMS_P1;PMS_P2;Temp;Humidity;BMP_temperature;BMP_pressure;BME280_temperature;BME280_humidity;BME280_pressure;Samples;Min_cycle;Max_cycle;Signal;HPM_P1;HPM_P2
2023/01/24 00:01:50;;;;;;;;;;;;;;;;;;102889;1331;44405;-48
2023/01/24 00:04:19;;;;;;;;;;;;;;;;;;102983;1328;42111;-45
2023/01/24 00:06:51;;;;;;;;;;;;;;;;;;103534;1327;40515;-47
2023/01/24 00:09:20;;;;;;;;;;;;;;;;;;103518;1340;45338;-47
2023/01/24 00:11:51;;;;;;;;;;;;;;;;;;103504;1328;43076;-48
2023/01/24 00:14:21;;;;;;;;;;;;;;;;;;103421;1327;39911;-47
2023/01/24 00:16:50;;;;;;;;;;;;;;;;;;102824;1347;40738;-47
2023/01/24 00:19:19;;;;;;;;;;;;;;;;;;102889;1331;44001;-47
2023/01/24 00:21:48;;;;;;;;;;;;;;;;;;102801;1331;175781;-47
2023/01/24 00:24:20;;;;;;;;;;;;;;;;;;102910;1331;39684;-45
2023/01/24 00:26:50;;;;;;;;;;;;;;;;;;103481;1327;40689;-45
2023/01/24 00:29:19;;;;;;;;;;;;;;;;;;103503;1327;43601;-49
2023/01/24 00:31:51;;;;;;;;;;;;;;;;;;103525;1333;41717;-46
2023/01/24 00:34:22;;;;;;;;;;;;;;;;;;103514;1334;38167;-47
2023/01/24 00:36:51;;;;;;;;;;;;;;;;;;103265;1339;41333;-48
2023/01/24 00:39:20;;;;;;;;;;;;;;;;;;103502;1334;43737;-47
2023/01/24 00:41:49;;;;;;;;;;;;;;;;;;103521;1332;41808;-48
2023/01/24 00:44:21;;;;;;;;;;;;;;;;;;103523;1327;38074;-48
2023/01/24 00:46:53;;;;;;;;;;;;;;;;;;102924;1340;41889;-48
2023/01/24 00:49:22;;;;;;;;;;;;;;;;;;102796;1333;198803;-47
2023/01/24 00:51:51;;;;;;;;;;;;;;;;;;102950;1331;41913;-48
2023/01/24 00:54:22;;;;;;;;;;;;;;;;;;102925;1331;39423;-48
2023/01/24 00:56:51;;;;;;;;;;;;;;;;;;103390;1328;41731;-48
2023/01/24 00:59:20;;;;;;;;;;;;;;;;;;103502;1327;43792;-48
2023/01/24 01:01:52;;;;;;;;;;;;;;;;;;103511;1328;41681;-44
2023/01/24 01:04:21;;;;;;;;;;;;;;;;;;103508;1327;40486;-47
2023/01/24 01:06:53;;;;;;;;;;;;;;;;;;103033;1335;42904;-48
2023/01/24 01:09:22;;;;;;;;;;;;;;;;;;102910;1331;44905;-48
2023/01/24 01:11:53;;;;;;;;;;;;;;;;;;102785;1331;175848;-46
2023/01/24 01:14:25;;;;;;;;;;;;;;;;;;102908;1340;39544;-48
2023/01/24 01:16:56;;;;;;;;;;;;;;;;;;103288;1328;41158;-48
2023/01/24 01:19:25;;;;;;;;;;;;;;;;;;103244;1327;43742;-47
2023/01/24 01:21:58;;;;;;;;;;;;;;;;;;103526;1326;42137;-47
2023/01/24 01:24:29;;;;;;;;;;;;;;;;;;103509;1326;39497;-48
2023/01/24 01:27:00;;;;;;;;;;;;;;;;;;103091;1327;42262;-48
2023/01/24 01:29:29;;;;;;;;;;;;;;;;;;102915;1331;44863;-48
2023/01/24 01:31:58;;;;;;;;;;;;;;;;;;102904;1347;41720;-48
2023/01/24 01:34:29;;;;;;;;;;;;;;;;;;102900;1333;40543;-45
2023/01/24 01:36:59;;;;;;;;;;;;;;;;;;103248;1327;41893;-48
2023/01/24 01:39:28;;;;;;;;;;;;;;;;;;103535;1327;43749;-48
2023/01/24 01:42:00;;;;;;;;;;;;;;;;;;103523;1326;41755;-47
2023/01/24 01:44:47;;;;;;;;;;;;;;;;;;103509;1340;38134;-48
2023/01/24 01:47:22;;;;;;;;;;;;;;;;;;103152;1328;42123;-46
2023/01/24 01:49:56;;;;;;;;;;;;;;;;;;102938;1331;45131;-48
2023/01/24 01:52:26;;;;;;;;;;;;;;;;;;102899;1334;43270;-45
2023/01/24 01:55:01;;;;;;;;;;;;;;;;;;102910;1346;41391;-48
2023/01/24 01:57:31;;;;;;;;;;;;;;;;;;103235;1327;41126;-46
2023/01/24 02:00:04;;;;;;;;;;;;;;;;;;103521;1327;45253;-45
2023/01/24 02:02:35;;;;;;;;;;;;;;;;;;103479;1327;41984;-48
2023/01/24 02:05:09;;;;;;;;;;;;;;;;;;103515;1324;39227;-48
2023/01/24 02:07:44;;;;;;;;;;;;;;;;;;103142;1325;41090;-45
2023/01/24 02:10:16;;;;;;;;;;;;;;;;;;102982;1339;45112;-48
2023/01/24 02:12:47;;;;;;;;;;;;;;;;;;102955;1331;42187;-45
2023/01/24 02:18:10;;;;;;;;;;;;;;;;;;103318;1328;42700;-48
2023/01/24 02:20:41;;;;;;;;;;;;;;;;;;103528;1325;44194;-49
2023/01/24 02:23:23;;;;;;;;;;;;;;;;;;103549;1324;42140;-45
2023/01/24 02:26:06;;;;;;;;;;;;;;;;;;103506;1325;39413;-45
2023/01/24 02:28:39;;;;;;;;;;;;;;;;;;103273;1327;40882;-47
2023/01/24 02:31:13;;;;;;;;;;;;;;;;;;103380;1337;44303;-44
2023/01/24 02:33:45;;;;;;;;;;;;;;;;;;103381;1327;42661;-48
2023/01/24 02:36:23;;;;;;;;;;;;;;;;;;103398;1328;38365;-47
2023/01/24 02:38:57;;;;;;;;;;;;;;;;;;103128;1328;41109;-46
2023/01/24 02:41:30;;;;;;;;;;;;;;;;;;103260;1333;46333;-44
2023/01/24 02:44:03;;;;;;;;;;;;;;;;;;103485;1325;42192;-48
2023/01/24 02:46:36;;;;;;;;;;;;;;;;;;103542;1337;39413;-48
2023/01/24 02:49:10;;;;;;;;;;;;;;;;;;103150;1327;40875;-44
2023/01/24 02:54:28;;;;;;;;;;;;;;;;;;102924;1333;42452;-44
2023/01/24 02:59:52;;;;;;;;;;;;;;;;;;103468;1326;46182;-48
2023/01/24 03:02:21;;;;;;;;;;;;;;;;;;103520;1328;46571;-48
2023/01/24 03:04:50;;;;;;;;;;;;;;;;;;103427;1336;42101;-47
2023/01/24 03:07:24;;;;;;;;;;;;;;;;;;103493;1326;39377;-47
2023/01/24 03:09:53;;;;;;;;;;;;;;;;;;102902;1331;40975;-46
2023/01/24 03:34:55;;;;;;;;;;;;;;;;;;102825;1337;197545;-46
2023/01/24 03:40:15;;;;;;;;;;;;;;;;;;102896;1328;39516;-48
2023/01/24 03:42:49;;;;;;;;;;;;;;;;;;102909;1331;41149;-47
2023/01/24 03:45:21;;;;;;;;;;;;;;;;;;102917;1347;43895;-47
2023/01/24 03:47:55;;;;;;;;;;;;;;;;;;102912;1333;42269;-48
2023/01/24 03:53:14;;;;;;;;;;;;;;;;;;103385;1337;40583;-47
2023/01/24 03:55:43;;;;;;;;;;;;;;;;;;103383;1342;43601;-46
2023/01/24 03:58:15;;;;;;;;;;;;;;;;;;103356;1328;42497;-47
2023/01/24 04:00:46;;;;;;;;;;;;;;;;;;103026;1331;39151;-48
2023/01/24 04:03:20;;;;;;;;;;;;;;;;;;102906;1340;40891;-48
2023/01/24 04:05:49;;;;;;;;;;;;;;;;;;102906;1333;45201;-47
2023/01/24 04:08:19;;;;;;;;;;;;;;;;;;102915;1337;41914;-48
2023/01/24 04:10:48;;;;;;;;;;;;;;;;;;103167;1327;38415;-49
2023/01/24 04:13:17;;;;;;;;;;;;;;;;;;103383;1327;42092;-45
2023/01/24 04:15:45;;;;;;;;;;;;;;;;;;103350;1328;45047;-49
2023/01/24 04:18:15;;;;;;;;;;;;;;;;;;103395;1342;42021;-48
2023/01/24 04:20:46;;;;;;;;;;;;;;;;;;103122;1327;38100;-48
2023/01/24 04:23:15;;;;;;;;;;;;;;;;;;102937;1343;42759;-48
2023/01/24 04:25:54;;;;;;;;;;;;;;;;;;102876;1347;43665;-45
2023/01/24 04:28:24;;;;;;;;;;;;;;;;;;102915;1347;43682;-45
2023/01/24 04:31:00;;;;;;;;;;;;;;;;;;103372;1328;39312;-44
2023/01/24 04:33:30;;;;;;;;;;;;;;;;;;103535;1325;41362;-44
2023/01/24 04:35:59;;;;;;;;;;;;;;;;;;103533;1326;43632;-48
2023/01/24 04:38:31;;;;;;;;;;;;;;;;;;103567;1327;43031;-47
2023/01/24 04:41:04;;;;;;;;;;;;;;;;;;103215;1336;38284;-46
2023/01/24 04:43:33;;;;;;;;;;;;;;;;;;102897;1331;41050;-48
2023/01/24 04:46:05;;;;;;;;;;;;;;;;;;102727;1332;315838;-47
2023/01/24 04:48:34;;;;;;;;;;;;;;;;;;102905;1333;43784;-47
2023/01/24 04:51:06;;;;;;;;;;;;;;;;;;103151;1328;39236;-46
2023/01/24 04:53:42;;;;;;;;;;;;;;;;;;103499;1337;40907;-49
2023/01/24 04:56:14;;;;;;;;;;;;;;;;;;103538;1327;45094;-49
2023/01/24 04:58:48;;;;;;;;;;;;;;;;;;103522;1328;42002;-48
2023/01/24 05:01:17;;;;;;;;;;;;;;;;;;103196;1333;39076;-48
2023/01/24 05:03:47;;;;;;;;;;;;;;;;;;102940;1331;40595;-48
2023/01/24 05:06:18;;;;;;;;;;;;;;;;;;102780;1331;175838;-44
2023/01/24 05:08:48;;;;;;;;;;;;;;;;;;102894;1331;41790;-44
2023/01/24 05:11:25;;;;;;;;;;;;;;;;;;103111;1328;39475;-48
2023/01/24 05:13:54;;;;;;;;;;;;;;;;;;103514;1331;40822;-49
2023/01/24 05:16:23;;;;;;;;;;;;;;;;;;103248;1327;45117;-48
2023/01/24 05:18:52;;;;;;;;;;;;;;;;;;103514;1326;41654;-48
2023/01/24 05:21:21;;;;;;;;;;;;;;;;;;103344;1331;38268;-46
2023/01/24 05:23:52;;;;;;;;;;;;;;;;;;102920;1336;42023;-48
2023/01/24 05:26:22;;;;;;;;;;;;;;;;;;102916;1347;45087;-47
2023/01/24 05:28:54;;;;;;;;;;;;;;;;;;102940;1331;41679;-47
2023/01/24 05:31:24;;;;;;;;;;;;;;;;;;103000;1328;38545;-48
2023/01/24 05:33:53;;;;;;;;;;;;;;;;;;103528;1327;40874;-47
2023/01/24 05:36:23;;;;;;;;;;;;;;;;;;103524;1340;43544;-47
2023/01/24 05:38:52;;;;;;;;;;;;;;;;;;103540;1340;41852;-46
2023/01/24 05:41:23;;;;;;;;;;;;;;;;;;103412;1331;38289;-48
2023/01/24 05:43:55;;;;;;;;;;;;;;;;;;102870;1347;43382;-47
2023/01/24 05:46:24;;;;;;;;;;;;;;;;;;102842;1347;43603;-47
2023/01/24 05:48:54;;;;;;;;;;;;;;;;;;102930;1331;42950;-48
2023/01/24 05:51:23;;;;;;;;;;;;;;;;;;102911;1331;38385;-46
2023/01/24 05:53:53;;;;;;;;;;;;;;;;;;103504;1337;48340;-48
2023/01/24 05:56:22;;;;;;;;;;;;;;;;;;103521;1340;45958;-48
2023/01/24 05:58:54;;;;;;;;;;;;;;;;;;103546;1326;42829;-48
2023/01/24 06:01:23;;;;;;;;;;;;;;;;;;103519;1328;38283;-48
2023/01/24 06:03:53;;;;;;;;;;;;;;;;;;102953;1333;41733;-48
2023/01/24 06:06:24;;;;;;;;;;;;;;;;;;102917;1347;45012;-48
2023/01/24 06:08:56;;;;;;;;;;;;;;;;;;102910;1331;41950;-48
2023/01/24 06:11:27;;;;;;;;;;;;;;;;;;102900;1347;38192;-49
2023/01/24 06:13:56;;;;;;;;;;;;;;;;;;103459;1328;41104;-48
2023/01/24 06:16:28;;;;;;;;;;;;;;;;;;103482;1328;44771;-48
2023/01/24 06:19:01;;;;;;;;;;;;;;;;;;103338;1334;42806;-48
2023/01/24 06:21:41;;;;;;;;;;;;;;;;;;103521;1326;40933;-45
2023/01/24 06:24:16;;;;;;;;;;;;;;;;;;102908;1331;42111;-48
2023/01/24 06:26:47;;;;;;;;;;;;;;;;;;102913;1347;44091;-47
2023/01/24 06:29:18;;;;;;;;;;;;;;;;;;102917;1331;42146;-48
2023/01/24 06:31:54;;;;;;;;;;;;;;;;;;102891;1340;39677;-49
2023/01/24 06:34:35;;;;;;;;;;;;;;;;;;103454;1332;41237;-48
2023/01/24 06:37:14;;;;;;;;;;;;;;;;;;103513;1328;43894;-47
2023/01/24 06:39:50;;;;;;;;;;;;;;;;;;103534;1326;43589;-48
2023/01/24 06:42:24;;;;;;;;;;;;;;;;;;103473;1328;40540;-46
2023/01/24 06:44:55;;;;;;;;;;;;;;;;;;102910;1331;47447;-48
2023/01/24 06:47:26;;;;;;;;;;;;;;;;;;102869;1331;43748;-45
2023/01/24 06:49:58;;;;;;;;;;;;;;;;;;102912;1344;43635;-48
2023/01/24 06:52:29;;;;;;;;;;;;;;;;;;103077;1343;40520;-47
2023/01/24 06:54:59;;;;;;;;;;;;;;;;;;102978;1328;45855;-48
2023/01/24 06:57:32;;;;;;;;;;;;;;;;;;102915;1331;45963;-49
2023/01/24 07:00:04;;;;;;;;;;;;;;;;;;102913;1330;41825;-46
2023/01/24 07:02:33;;;;;;;;;;;;;;;;;;102976;1333;39094;-46
2023/01/24 07:05:10;;;;;;;;;;;;;;;;;;103330;1328;43262;-47
2023/01/24 07:07:40;;;;;;;;;;;;;;;;;;103393;1327;44169;-46
2023/01/24 07:10:11;;;;;;;;;;;;;;;;;;103354;1336;41753;-48
2023/01/24 07:12:42;;;;;;;;;;;;;;;;;;103388;1327;40716;-47
2023/01/24 07:15:12;;;;;;;;;;;;;;;;;;102881;1331;41530;-46
2023/01/24 07:17:45;;;;;;;;;;;;;;;;;;102898;1340;43642;-48
2023/01/24 07:20:16;;;;;;;;;;;;;;;;;;102881;1331;43366;-46
2023/01/24 07:22:46;;;;;;;;;;;;;;;;;;102919;1336;39468;-46
2023/01/24 07:25:19;;;;;;;;;;;;;;;;;;103400;1327;42380;-49
2023/01/24 07:27:49;;;;;;;;;;;;;;;;;;103506;1327;43945;-48
2023/01/24 07:30:21;;;;;;;;;;;;;;;;;;103506;1334;42065;-48
2023/01/24 07:32:54;;;;;;;;;;;;;;;;;;103500;1326;39126;-49
2023/01/24 07:35:27;;;;;;;;;;;;;;;;;;102954;1338;42335;-48
2023/01/24 07:37:56;;;;;;;;;;;;;;;;;;102939;1334;45349;-48
2023/01/24 07:40:25;;;;;;;;;;;;;;;;;;102894;1331;43210;-48
2023/01/24 07:42:54;;;;;;;;;;;;;;;;;;103265;1328;39441;-48
2023/01/24 07:45:23;;;;;;;;;;;;;;;;;;103057;1328;41100;-48
2023/01/24 07:47:57;;;;;;;;;;;;;;;;;;102951;1331;45656;-47
2023/01/24 07:50:27;;;;;;;;;;;;;;;;;;102998;1331;42376;-41
2023/01/24 07:52:56;;;;;;;;;;;;;;;;;;102838;1333;38119;-41
2023/01/24 07:55:26;;;;;;;;;;;;;;;;;;103183;1329;40880;-42
2023/01/24 07:57:59;;;;;;;;;;;;;;;;;;103376;1336;43676;-41
2023/01/24 08:00:28;;;;;;;;;;;;;;;;;;103365;1327;45067;-41
2023/01/24 08:02:59;;;;;;;;;;;;;;;;;;103361;1342;38350;-42
2023/01/24 08:05:30;;;;;;;;;;;;;;;;;;103068;1344;40920;-42
2023/01/24 08:08:00;;;;;;;;;;;;;;;;;;102905;1331;46755;-42
2023/01/24 08:10:29;;;;;;;;;;;;;;;;;;102936;1333;41861;-41
2023/01/24 08:12:58;;;;;;;;;;;;;;;;;;102936;1347;39332;-42
2023/01/24 08:15:27;;;;;;;;;;;;;;;;;;103109;1328;42164;-42
2023/01/24 08:17:59;;;;;;;;;;;;;;;;;;103378;1342;43505;-41
2023/01/24 08:20:29;;;;;;;;;;;;;;;;;;103359;1327;41790;-41
2023/01/24 08:22:58;;;;;;;;;;;;;;;;;;103367;1327;38226;-41
2023/01/24 08:25:29;;;;;;;;;;;;;;;;;;103173;1338;40771;-41
2023/01/24 08:27:59;;;;;;;;;;;;;;;;;;102902;1340;43560;-41
2023/01/24 08:30:30;;;;;;;;;;;;;;;;;;102884;1331;42056;-41
2023/01/24 08:33:04;;;;;;;;;;;;;;;;;;102906;1334;38326;-42
2023/01/24 08:35:35;;;;;;;;;;;;;;;;;;103113;1327;42516;-42
2023/01/24 08:38:08;;;;;;;;;;;;;;;;;;103377;1327;46476;-42
2023/01/24 08:40:37;;;;;;;;;;;;;;;;;;103358;1327;43407;-41
2023/01/24 08:43:20;;;;;;;;;;;;;;;;;;103358;1328;39527;-42
2023/01/24 08:45:53;;;;;;;;;;;;;;;;;;103153;1328;41067;-42
2023/01/24 08:48:23;;;;;;;;;;;;;;;;;;102923;1334;43878;-42
2023/01/24 08:50:55;;;;;;;;;;;;;;;;;;102922;1339;43572;-49
2023/01/24 08:53:24;;;;;;;;;;;;;;;;;;102812;1331;192763;-45
2023/01/24 08:55:53;;;;;;;;;;;;;;;;;;103037;1328;40943;-47
2023/01/24 08:58:27;;;;;;;;;;;;;;;;;;103224;1337;175698;-49
2023/01/24 09:00:56;;;;;;;;;;;;;;;;;;103365;1327;42496;-50
2023/01/24 09:03:26;;;;;;;;;;;;;;;;;;103142;1331;38254;-47
2023/01/24 09:05:58;;;;;;;;;;;;;;;;;;103207;1327;41912;-49
2023/01/24 09:08:27;;;;;;;;;;;;;;;;;;103079;1331;44904;-47
2023/01/24 09:10:59;;;;;;;;;;;;;;;;;;102965;1331;42410;-48
2023/01/24 09:13:29;;;;;;;;;;;;;;;;;;102980;1346;39410;-49
2023/01/24 09:15:59;;;;;;;;;;;;;;;;;;103106;1327;40520;-51
2023/01/24 09:18:30;;;;;;;;;;;;;;;;;;103417;1327;43601;-52
2023/01/24 09:21:04;;;;;;;;;;;;;;;;;;103344;1337;42338;-49
2023/01/24 09:23:32;;;;;;;;;;;;;;;;;;103369;1327;39332;-47
2023/01/24 09:26:04;;;;;;;;;;;;;;;;;;103308;1337;40540;-47
2023/01/24 09:28:34;;;;;;;;;;;;;;;;;;102933;1346;43753;-52
2023/01/24 09:31:03;;;;;;;;;;;;;;;;;;102996;1331;42812;-51
2023/01/24 09:33:32;;;;;;;;;;;;;;;;;;103067;1331;39302;-52
2023/01/24 09:36:02;;;;;;;;;;;;;;;;;;103083;1328;41638;-43
2023/01/24 09:38:32;;;;;;;;;;;;;;;;;;103362;1337;43788;-44
2023/01/24 09:41:08;;;;;;;;;;;;;;;;;;103388;1336;42017;-46
2023/01/24 09:43:50;;;;;;;;;;;;;;;;;;103354;1328;39401;-44
2023/01/24 09:46:29;;;;;;;;;;;;;;;;;;103307;1327;42246;-42
2023/01/24 09:49:13;;;;;;;;;;;;;;;;;;103059;1330;44020;-46
2023/01/24 09:51:47;;;;;;;;;;;;;;;;;;103055;1330;42346;-50
2023/01/24 09:54:25;;;;;;;;;;;;;;;;;;103106;1337;39345;-44
2023/01/24 09:57:00;;;;;;;;;;;;;;;;;;103126;1327;42140;-41
2023/01/24 09:59:37;;;;;;;;;;;;;;;;;;103390;1327;43874;-43
2023/01/24 10:02:15;;;;;;;;;;;;;;;;;;103492;1327;42407;-49
2023/01/24 10:04:46;;;;;;;;;;;;;;;;;;103430;1327;39397;-41
2023/01/24 10:07:31;;;;;;;;;;;;;;;;;;103167;1327;41229;-41
2023/01/24 10:10:11;;;;;;;;;;;;;;;;;;102898;1347;44540;-40
2023/01/24 10:12:49;;;;;;;;;;;;;;;;;;102876;1347;42206;-43
2023/01/24 10:15:27;;;;;;;;;;;;;;;;;;102917;1331;39515;-46
2023/01/24 10:18:08;;;;;;;;;;;;;;;;;;103156;1334;41352;-48
2023/01/24 10:20:47;;;;;;;;;;;;;;;;;;103409;1342;45276;-41
2023/01/24 10:23:18;;;;;;;;;;;;;;;;;;103353;1338;42099;-48
2023/01/24 10:25:53;;;;;;;;;;;;;;;;;;103398;1342;40557;-44
2023/01/24 10:28:27;;;;;;;;;;;;;;;;;;103071;1327;42246;-43
2023/01/24 10:31:10;;;;;;;;;;;;;;;;;;102858;1347;44066;-43
2023/01/24 10:33:47;;;;;;;;;;;;;;;;;;102923;1331;42315;-45
2023/01/24 10:36:23;;;;;;;;;;;;;;;;;;102950;1331;40850;-44
2023/01/24 10:38:59;;;;;;;;;;;;;;;;;;103223;1328;41189;-44
2023/01/24 10:41:31;;;;;;;;;;;;;;;;;;103360;1341;44169;-44
2023/01/24 10:44:06;;;;;;;;;;;;;;;;;;103255;1342;175663;-47
2023/01/24 10:47:00;;;;;;;;;;;;;;;;;;103378;1338;39330;-45
2023/01/24 10:49:31;;;;;;;;;;;;;;;;;;102279;1330;894607;-47
2023/01/24 10:52:17;;;;;;;;;;;;;;;;;;102933;1347;44759;-44
2023/01/24 10:54:51;;;;;;;;;;;;;;;;;;102911;1331;42493;-47
2023/01/24 10:57:35;;;;;;;;;;;;;;;;;;102952;1336;39699;-45
2023/01/24 11:00:33;;;;;;;;;;;;;;;;;;103346;1327;48375;-43
2023/01/24 11:03:04;;;;;;;;;;;;;;;;;;103336;1328;44242;-46
2023/01/24 11:05:48;;;;;;;;;;;;;;;;;;103379;1327;43722;-46
2023/01/24 11:08:20;;;;;;;;;;;;;;;;;;103247;1331;39837;-47
2023/01/24 11:10:54;;;;;;;;;;;;;;;;;;102878;1331;42863;-46
2023/01/24 11:13:34;;;;;;;;;;;;;;;;;;102930;1331;44322;-44
2023/01/24 11:16:19;;;;;;;;;;;;;;;;;;102922;1347;42290;-44
2023/01/24 11:18:56;;;;;;;;;;;;;;;;;;103068;1328;39813;-44
2023/01/24 11:21:27;;;;;;;;;;;;;;;;;;103380;1342;43474;-48
2023/01/24 11:24:12;;;;;;;;;;;;;;;;;;103429;1342;46527;-43
2023/01/24 11:26:55;;;;;;;;;;;;;;;;;;103391;1327;42551;-43
2023/01/24 11:29:24;;;;;;;;;;;;;;;;;;103083;1331;39414;-45
2023/01/24 11:31:56;;;;;;;;;;;;;;;;;;102918;1347;40717;-45
2023/01/24 11:34:50;;;;;;;;;;;;;;;;;;102925;1331;44237;-43
2023/01/24 11:37:35;;;;;;;;;;;;;;;;;;102865;1340;43425;-47
2023/01/24 11:40:20;;;;;;;;;;;;;;;;;;103198;1327;39278;-46
2023/01/24 11:42:59;;;;;;;;;;;;;;;;;;103379;1327;41176;-44
2023/01/24 11:45:37;;;;;;;;;;;;;;;;;;103354;1327;44248;-47
2023/01/24 11:48:13;;;;;;;;;;;;;;;;;;103389;1342;42476;-43
2023/01/24 11:50:52;;;;;;;;;;;;;;;;;;102918;1332;39484;-47
2023/01/24 11:53:41;;;;;;;;;;;;;;;;;;102938;1343;41283;-44
2023/01/24 11:56:20;;;;;;;;;;;;;;;;;;102923;1340;45797;-49
2023/01/24 11:59:16;;;;;;;;;;;;;;;;;;102885;1331;42675;-51
2023/01/24 12:01:53;;;;;;;;;;;;;;;;;;103104;1331;45798;-49
2023/01/24 12:04:41;;;;;;;;;;;;;;;;;;103353;1327;42465;-44
2023/01/24 12:07:20;;;;;;;;;;;;;;;;;;103348;1327;44623;-46
2023/01/24 12:09:55;;;;;;;;;;;;;;;;;;103267;1337;42915;-46
2023/01/24 12:12:33;;;;;;;;;;;;;;;;;;102914;1341;39604;-49
2023/01/24 12:15:21;;;;;;;;;;;;;;;;;;102893;1331;41361;-42
2023/01/24 12:18:02;;;;;;;;;;;;;;;;;;102857;1333;44439;-46
2023/01/24 12:20:57;;;;;;;;;;;;;;;;;;103084;1328;42789;-48
2023/01/24 12:23:36;;;;;;;;;;;;;;;;;;103402;1336;39749;-41
2023/01/24 12:26:10;;;;;;;;;;;;;;;;;;103354;1327;41365;-42
2023/01/24 12:28:45;;;;;;;;;;;;;;;;;;103335;1328;44267;-44
2023/01/24 12:31:21;;;;;;;;;;;;;;;;;;103062;1327;42452;-49
2023/01/24 12:33:56;;;;;;;;;;;;;;;;;;102913;1331;39611;-51
2023/01/24 12:36:34;;;;;;;;;;;;;;;;;;102726;1347;43619;-41
2023/01/24 12:39:12;;;;;;;;;;;;;;;;;;102957;1331;44408;-44
2023/01/24 12:41:46;;;;;;;;;;;;;;;;;;103170;1327;42398;-47
2023/01/24 12:44:26;;;;;;;;;;;;;;;;;;103357;1343;42112;-53
2023/01/24 12:47:05;;;;;;;;;;;;;;;;;;103107;1342;331519;-50
2023/01/24 12:49:42;;;;;;;;;;;;;;;;;;103400;1334;44428;-53
2023/01/24 12:52:21;;;;;;;;;;;;;;;;;;103006;1331;42782;-52
2023/01/24 12:54:56;;;;;;;;;;;;;;;;;;102937;1331;39706;-51
2023/01/24 12:57:31;;;;;;;;;;;;;;;;;;102923;1340;41287;-51
2023/01/24 13:00:04;;;;;;;;;;;;;;;;;;102280;1340;894190;-51
2023/01/24 13:03:00;;;;;;;;;;;;;;;;;;103256;1327;43619;-54
2023/01/24 13:05:36;;;;;;;;;;;;;;;;;;103320;1337;39575;-52
2023/01/24 13:08:18;;;;;;;;;;;;;;;;;;103375;1327;41368;-50
2023/01/24 13:10:54;;;;;;;;;;;;;;;;;;103356;1334;44398;-52
2023/01/24 13:13:26;;;;;;;;;;;;;;;;;;102912;1331;43669;-50
2023/01/24 13:16:04;;;;;;;;;;;;;;;;;;102937;1334;40773;-49
2023/01/24 13:18:47;;;;;;;;;;;;;;;;;;102752;1340;175473;-56
2023/01/24 13:21:22;;;;;;;;;;;;;;;;;;102991;1327;44745;-49
2023/01/24 13:24:01;;;;;;;;;;;;;;;;;;103375;1327;42320;-50
2023/01/24 13:26:47;;;;;;;;;;;;;;;;;;103389;1343;39453;-50
2023/01/24 13:29:35;;;;;;;;;;;;;;;;;;103381;1343;41037;-51
2023/01/24 13:32:06;;;;;;;;;;;;;;;;;;103098;1331;177606;-51
2023/01/24 13:34:41;;;;;;;;;;;;;;;;;;102842;1347;195571;-52
2023/01/24 13:37:19;;;;;;;;;;;;;;;;;;102876;1340;40852;-45
2023/01/24 13:39:50;;;;;;;;;;;;;;;;;;102933;1331;41217;-52
2023/01/24 13:42:24;;;;;;;;;;;;;;;;;;102837;1331;44092;-50
2023/01/24 13:44:56;;;;;;;;;;;;;;;;;;102915;1333;42449;-46
2023/01/24 13:47:35;;;;;;;;;;;;;;;;;;102787;1331;39704;-49
2023/01/24 13:50:17;;;;;;;;;;;;;;;;;;103108;1339;41248;-47
2023/01/24 13:52:54;;;;;;;;;;;;;;;;;;103011;1331;44733;-48
2023/01/24 13:55:56;;;;;;;;;;;;;;;;;;103332;1336;43737;-45
2023/01/24 13:58:27;;;;;;;;;;;;;;;;;;103154;1331;39621;-43
2023/01/24 14:01:01;;;;;;;;;;;;;;;;;;103116;1331;42584;-44
2023/01/24 14:03:37;;;;;;;;;;;;;;;;;;102869;1334;46572;-50
2023/01/24 14:06:12;;;;;;;;;;;;;;;;;;102905;1347;42498;-46
2023/01/24 14:08:51;;;;;;;;;;;;;;;;;;102944;1331;39524;-48
2023/01/24 14:11:23;;;;;;;;;;;;;;;;;;103004;1347;41437;-45
2023/01/24 14:14:00;;;;;;;;;;;;;;;;;;103353;1328;44307;-44
2023/01/24 14:16:57;;;;;;;;;;;;;;;;;;103454;1328;42362;-53
2023/01/24 14:19:30;;;;;;;;;;;;;;;;;;103402;1342;41782;-49
2023/01/24 14:22:05;;;;;;;;;;;;;;;;;;103389;1328;41125;-49
2023/01/24 14:24:48;;;;;;;;;;;;;;;;;;102767;1333;51002;-49
2023/01/24 14:27:22;;;;;;;;;;;;;;;;;;102725;1334;175327;-44
2023/01/24 14:30:01;;;;;;;;;;;;;;;;;;102816;1340;39588;-46
2023/01/24 14:32:37;;;;;;;;;;;;;;;;;;102799;1331;41121;-43
2023/01/24 14:35:17;;;;;;;;;;;;;;;;;;103178;1331;44233;-46
2023/01/24 14:37:47;;;;;;;;;;;;;;;;;;103125;1344;42373;-46
2023/01/24 14:40:25;;;;;;;;;;;;;;;;;;103092;1345;38501;-45
2023/01/24 14:43:00;;;;;;;;;;;;;;;;;;103002;1335;42213;-48
2023/01/24 14:45:38;;;;;;;;;;;;;;;;;;102886;1334;44542;-47
2023/01/24 14:48:10;;;;;;;;;;;;;;;;;;102819;1333;42693;-39
2023/01/24 14:50:39;;;;;;;;;;;;;;;;;;102825;1340;39602;-43
2023/01/24 14:53:23;;;;;;;;;;;;;;;;;;102823;1331;40976;-45
2023/01/24 14:55:54;;;;;;;;;;;;;;;;;;102942;1331;44585;-44
2023/01/24 14:58:24;;;;;;;;;;;;;;;;;;103090;1340;42868;-46
2023/01/24 15:00:55;;;;;;;;;;;;;;;;;;103112;1331;42091;-44
2023/01/24 15:03:26;;;;;;;;;;;;;;;;;;102999;1331;41571;-46
2023/01/24 15:06:04;;;;;;;;;;;;;;;;;;102771;1334;44702;-42
2023/01/24 15:08:37;;;;;;;;;;;;;;;;;;102814;1332;42393;-43
2023/01/24 15:11:20;;;;;;;;;;;;;;;;;;102774;1333;39709;-45
2023/01/24 15:13:54;;;;;;;;;;;;;;;;;;102916;1331;194657;-49
2023/01/24 15:16:28;;;;;;;;;;;;;;;;;;103164;1340;44324;-44
2023/01/24 15:19:04;;;;;;;;;;;;;;;;;;103145;1330;42414;-42
2023/01/24 15:21:37;;;;;;;;;;;;;;;;;;103102;1331;39492;-44
2023/01/24 15:24:19;;;;;;;;;;;;;;;;;;102940;1331;41248;-46
2023/01/24 15:26:48;;;;;;;;;;;;;;;;;;102782;1340;44576;-45
2023/01/24 15:29:50;;;;;;;;;;;;;;;;;;102782;1340;42657;-49
2023/01/24 15:32:30;;;;;;;;;;;;;;;;;;102753;1334;39384;-46
2023/01/24 15:35:30;;;;;;;;;;;;;;;;;;102965;1340;41329;-47
2023/01/24 15:38:09;;;;;;;;;;;;;;;;;;102211;1340;44522;-48
2023/01/24 15:40:48;;;;;;;;;;;;;;;;;;102912;1331;42560;-48
2023/01/24 15:49:01;;;;;;;;;;;;;;;;;;102745;1334;45135;-49
2023/01/24 15:51:33;;;;;;;;;;;;;;;;;;102738;1333;42639;-46
2023/01/24 15:54:10;;;;;;;;;;;;;;;;;;102785;1334;39774;-47
2023/01/24 15:56:42;;;;;;;;;;;;;;;;;;103096;1331;49334;-43
2023/01/24 15:59:30;;;;;;;;;;;;;;;;;;102882;1331;44338;-43
2023/01/24 16:02:00;;;;;;;;;;;;;;;;;;102898;1332;43443;-48
2023/01/24 16:04:29;;;;;;;;;;;;;;;;;;102835;1331;39534;-48
2023/01/24 16:06:58;;;;;;;;;;;;;;;;;;102601;1337;40815;-47
2023/01/24 16:09:27;;;;;;;;;;;;;;;;;;102646;1347;44151;-45
2023/01/24 16:11:55;;;;;;;;;;;;;;;;;;102590;1337;42262;-45
2023/01/24 16:14:25;;;;;;;;;;;;;;;;;;102619;1336;39711;-45
2023/01/24 16:16:57;;;;;;;;;;;;;;;;;;102984;1331;50564;-45
2023/01/24 16:19:26;;;;;;;;;;;;;;;;;;102897;1340;43880;-48
2023/01/24 16:21:55;;;;;;;;;;;;;;;;;;102889;1331;42020;-45
2023/01/24 16:24:24;;;;;;;;;;;;;;;;;;102899;1347;39641;-48
2023/01/24 16:26:54;;;;;;;;;;;;;;;;;;102615;1336;40798;-48
2023/01/24 16:29:27;;;;;;;;;;;;;;;;;;102648;1351;44092;-47
2023/01/24 16:31:56;;;;;;;;;;;;;;;;;;102622;1337;43436;-48
2023/01/24 16:34:30;;;;;;;;;;;;;;;;;;102591;1337;38539;-45
2023/01/24 16:37:01;;;;;;;;;;;;;;;;;;102827;1331;41196;-48
2023/01/24 16:39:30;;;;;;;;;;;;;;;;;;102923;1340;44268;-48
2023/01/24 16:42:05;;;;;;;;;;;;;;;;;;102882;1331;44061;-49
2023/01/24 16:44:41;;;;;;;;;;;;;;;;;;102892;1331;39641;-49
2023/01/24 16:47:10;;;;;;;;;;;;;;;;;;102675;1331;42487;-47
2023/01/24 16:49:39;;;;;;;;;;;;;;;;;;102636;1336;45246;-47
2023/01/24 16:52:08;;;;;;;;;;;;;;;;;;102673;1337;42138;-48
2023/01/24 16:54:47;;;;;;;;;;;;;;;;;;102647;1347;39663;-45
2023/01/24 16:57:16;;;;;;;;;;;;;;;;;;102920;1334;42206;-47
2023/01/24 16:59:46;;;;;;;;;;;;;;;;;;103079;1332;43883;-48
2023/01/24 17:02:17;;;;;;;;;;;;;;;;;;103086;1331;42097;-49
2023/01/24 17:04:50;;;;;;;;;;;;;;;;;;103063;1337;39694;-46
2023/01/24 17:07:21;;;;;;;;;;;;;;;;;;102798;1337;40943;-49
2023/01/24 17:09:49;;;;;;;;;;;;;;;;;;102625;1334;175971;-48
2023/01/24 17:12:24;;;;;;;;;;;;;;;;;;102752;1341;42096;-46
2023/01/24 17:14:57;;;;;;;;;;;;;;;;;;102766;1334;39509;-42
2023/01/24 17:17:27;;;;;;;;;;;;;;;;;;102996;1329;41415;-43
2023/01/24 17:20:01;;;;;;;;;;;;;;;;;;103170;1337;44441;-43
2023/01/24 17:22:31;;;;;;;;;;;;;;;;;;103113;1346;42224;-43
2023/01/24 17:25:01;;;;;;;;;;;;;;;;;;103083;1340;39536;-39
2023/01/24 17:27:31;;;;;;;;;;;;;;;;;;102816;1334;41125;-42
2023/01/24 17:30:02;;;;;;;;;;;;;;;;;;102817;1334;44181;-42
2023/01/24 17:32:33;;;;;;;;;;;;;;;;;;102703;1334;42471;-37
2023/01/24 17:35:05;;;;;;;;;;;;;;;;;;103559;1348;40725;-38
2023/01/24 17:37:36;;;;;;;;;;;;;;;;;;102925;1329;41142;-38
2023/01/24 17:40:11;;;;;;;;;;;;;;;;;;102864;1334;46278;-44
2023/01/24 17:42:48;;;;;;;;;;;;;;;;;;103054;1339;42039;-44
2023/01/24 17:45:20;;;;;;;;;;;;;;;;;;103143;1331;39490;-40
2023/01/24 17:47:51;;;;;;;;;;;;;;;;;;103190;1328;41014;-40
2023/01/24 17:50:23;;;;;;;;;;;;;;;;;;103351;1328;44314;-41
2023/01/24 17:52:51;;;;;;;;;;;;;;;;;;103352;1328;42010;-41